Terminal Aerodrome Forecast
Issued by NWS

Home | Current Version | Previous Version | Text Only | Print | Product List | Glossary On
Versions: 1 2 3 4 5 6 7 8 9 10 11 12 13 14 15 16 17 18 19 20 21 22 23 24 25 26 27 28 29 30
000
FTUS45 KLKN 201120
TAFELY
TAF
KELY 201120Z 2012/2112 35012KT 3SM -SN BR OVC020
      TEMPO 2012/2014 3/4SM -SN BR VV010
     FM201700 36015G25KT 6SM -SN BKN025 OVC050
     FM210300 35008KT P6SM VCSH BKN030 BKN150
     FM210700 33007KT P6SM SCT035 SCT150=

USA.gov is the U.S. government's official web portal to all federal, state and local government web resources and services.